Pagina principale
METAR-TAF:

METAR-TAF

Aeroporti :

Cannes, Francia

latitudine: 43-33N, longitudine: 006-57E, altezza: 3 m

Osservazione

Il bollettino è stato emesso 29 minuti fa, alle 16:30 UTC
Vento 5 kt da sud/sud-est, variando fra est/sud-est e sud/sud-ovest
Temperature 21°C
Umidità 60%
Pressione 1014 hPa
Visibilità 10 km o più
nessuna nube inferiore a 1500 m e nessun cumulonembo

METAR: LFMD 311630Z AUTO 16005KT 110V200 CAVOK 21/13 Q1014

Ora: 18:59 (16:59 UTC)


TAF: mancante

Osservazioni e previsioni meteorologiche di più di 4000 aeroporti (messaggi METAR e TAF).

Le stazioni disponibili sono rappresentate dai dischi gialli e rossi sulla carta.

Puntare il mouse per vedere il nome della stazione.

Clicca sopra per visualizzare le osservazioni e previsioni meteorologiche.

Per cambiare la mappa : fare clic sui pulsanti verdi con una croce nera per ingrandire, il pulsante verde con un trattino per diminuire, o sulla freccia verde per le mappe adiacenti.


METAR-TAF: